createdAt,value
2018-07-12T00:02:07.024Z,16.80
2018-07-12T00:04:35.102Z,16.80
2018-07-12T00:07:02.954Z,16.80
2018-07-12T00:09:30.799Z,16.80
2018-07-12T00:11:58.645Z,16.80
2018-07-12T00:14:26.480Z,16.80
2018-07-12T00:16:54.337Z,16.80
2018-07-12T00:19:22.166Z,16.80
2018-07-12T00:21:50.028Z,16.80
2018-07-12T00:24:17.919Z,16.80
2018-07-12T00:26:45.799Z,16.70
2018-07-12T00:29:13.692Z,16.70
2018-07-12T00:31:41.623Z,16.70
2018-07-12T00:34:09.465Z,16.70
2018-07-12T00:36:37.285Z,16.80
2018-07-12T00:39:05.877Z,16.80
2018-07-12T00:41:33.738Z,16.80
2018-07-12T00:44:01.703Z,16.90
2018-07-12T00:46:29.543Z,16.90
2018-07-12T00:48:57.364Z,17.00
2018-07-12T00:51:25.459Z,16.90
2018-07-12T00:53:53.350Z,16.90
2018-07-12T00:56:21.203Z,16.90
2018-07-12T00:58:49.139Z,16.80
2018-07-12T01:01:16.953Z,16.80
2018-07-12T01:03:44.785Z,16.80
2018-07-12T01:06:12.725Z,16.80
2018-07-12T01:08:40.552Z,16.90
2018-07-12T01:11:08.401Z,16.90
2018-07-12T01:13:36.223Z,16.90
2018-07-12T01:16:04.070Z,16.90
2018-07-12T01:18:31.926Z,16.90
2018-07-12T01:20:59.747Z,16.90
2018-07-12T01:23:27.577Z,16.90
2018-07-12T01:25:55.879Z,16.90
2018-07-12T01:28:23.827Z,16.90
2018-07-12T01:30:51.649Z,17.00
2018-07-12T01:33:19.483Z,17.00
2018-07-12T01:35:47.299Z,16.90
2018-07-12T01:38:15.158Z,16.90
2018-07-12T01:40:42.967Z,16.90
2018-07-12T01:43:10.979Z,17.00
2018-07-12T01:45:38.892Z,17.10
2018-07-12T01:48:06.809Z,17.10
2018-07-12T01:50:34.746Z,17.10
2018-07-12T01:53:02.575Z,17.10
2018-07-12T01:55:30.419Z,17.10
2018-07-12T01:57:58.371Z,17.20
2018-07-12T02:00:26.419Z,17.20
2018-07-12T02:02:54.340Z,17.20
2018-07-12T02:05:22.187Z,17.10
2018-07-12T02:07:50.035Z,17.10
2018-07-12T02:10:17.897Z,17.00
2018-07-12T02:12:45.736Z,16.90
2018-07-12T02:15:13.575Z,16.90
2018-07-12T02:17:41.396Z,17.00
2018-07-12T02:20:09.227Z,16.90
2018-07-12T02:22:37.057Z,17.00
2018-07-12T02:25:04.918Z,16.90
2018-07-12T02:27:32.948Z,16.90
2018-07-12T02:30:00.850Z,17.00
2018-07-12T02:32:28.987Z,16.90
2018-07-12T02:34:57.252Z,16.90
2018-07-12T02:37:25.078Z,16.90
2018-07-12T02:39:52.899Z,17.00
2018-07-12T02:42:20.775Z,16.90
2018-07-12T02:44:48.683Z,16.80
2018-07-12T02:47:16.844Z,16.80
2018-07-12T02:49:44.763Z,16.90
2018-07-12T02:52:13.038Z,16.80
2018-07-12T02:54:40.962Z,16.80
2018-07-12T02:57:08.804Z,16.70
2018-07-12T02:59:36.634Z,16.70
2018-07-12T03:02:04.758Z,16.60
2018-07-12T03:04:32.593Z,16.60
2018-07-12T03:07:00.451Z,16.50
2018-07-12T03:09:28.275Z,16.50
2018-07-12T03:11:56.124Z,16.60
2018-07-12T03:14:23.990Z,16.50
2018-07-12T03:16:52.007Z,16.50
2018-07-12T03:19:19.848Z,16.50
2018-07-12T03:21:47.659Z,16.40
2018-07-12T03:24:15.650Z,16.40
2018-07-12T03:26:43.479Z,16.30
2018-07-12T03:29:11.371Z,16.20
2018-07-12T03:31:39.202Z,16.20
2018-07-12T03:34:07.584Z,16.20
2018-07-12T03:36:35.394Z,16.20
2018-07-12T03:39:03.415Z,16.20
